createdAt,value
2019-06-27T00:02:01.268Z,18.07
2019-06-27T00:05:05.580Z,16.87
2019-06-27T00:08:09.600Z,17.97
2019-06-27T00:11:13.663Z,17.63
2019-06-27T00:14:17.685Z,21.70
2019-06-27T00:17:21.619Z,19.43
2019-06-27T00:20:25.928Z,18.17
2019-06-27T00:23:30.148Z,16.03
2019-06-27T00:26:34.164Z,15.90
2019-06-27T00:29:38.380Z,18.90
2019-06-27T00:32:42.237Z,19.47
2019-06-27T00:35:46.191Z,18.37
2019-06-27T00:38:50.135Z,17.93
2019-06-27T00:41:54.343Z,17.10
2019-06-27T00:44:58.873Z,24.77
2019-06-27T00:48:03.515Z,16.03
2019-06-27T00:51:07.450Z,22.27
2019-06-27T00:54:11.400Z,19.53
2019-06-27T00:57:15.439Z,21.80
2019-06-27T01:00:19.773Z,15.97
2019-06-27T01:03:24.607Z,14.20
2019-06-27T01:06:28.486Z,17.97
2019-06-27T01:09:32.753Z,15.07
2019-06-27T01:12:36.685Z,14.83
2019-06-27T01:15:40.627Z,19.37
2019-06-27T01:18:44.783Z,19.63
2019-06-27T01:21:49.919Z,18.07
2019-06-27T01:24:53.946Z,22.37
2019-06-27T01:27:58.291Z,20.07
2019-06-27T01:31:02.961Z,20.40
2019-06-27T01:34:06.827Z,19.73
2019-06-27T01:37:10.760Z,14.37
2019-06-27T01:40:16.422Z,17.07
2019-06-27T01:43:20.423Z,17.10
2019-06-27T01:46:24.717Z,18.97
2019-06-27T01:49:28.937Z,17.10
2019-06-27T01:52:33.462Z,16.93
2019-06-27T01:55:37.328Z,22.97
2019-06-27T01:58:41.596Z,23.77
2019-06-27T02:01:45.616Z,17.20
2019-06-27T02:04:49.936Z,14.23
2019-06-27T02:07:53.965Z,16.50
2019-06-27T02:10:58.008Z,20.63
2019-06-27T02:14:02.172Z,21.73
2019-06-27T02:17:06.489Z,17.27
2019-06-27T02:20:11.191Z,15.70
2019-06-27T02:23:16.136Z,15.93
2019-06-27T02:26:20.483Z,20.90
2019-06-27T02:29:24.422Z,21.93
2019-06-27T02:32:28.965Z,16.90
2019-06-27T02:35:33.573Z,14.73
2019-06-27T02:38:38.106Z,18.70
2019-06-27T02:41:42.321Z,18.57
2019-06-27T02:44:46.555Z,20.30
2019-06-27T02:47:50.570Z,20.60
2019-06-27T02:50:54.591Z,24.83
2019-06-27T02:53:59.099Z,27.53
2019-06-27T02:57:03.225Z,24.00
2019-06-27T03:00:07.854Z,19.63
2019-06-27T03:03:11.780Z,22.33
2019-06-27T03:06:15.798Z,28.47
2019-06-27T03:09:20.510Z,17.30
2019-06-27T03:12:25.272Z,22.13
2019-06-27T03:15:29.140Z,25.13
2019-06-27T03:18:33.605Z,24.90
2019-06-27T03:21:37.625Z,22.00
2019-06-27T03:24:42.168Z,28.57
2019-06-27T03:27:46.565Z,21.90
2019-06-27T03:30:50.740Z,21.87
2019-06-27T03:33:55.298Z,24.07
2019-06-27T03:36:59.221Z,26.07
2019-06-27T03:40:03.713Z,22.20
2019-06-27T03:43:08.081Z,22.23
2019-06-27T03:46:12.686Z,22.73
2019-06-27T03:49:16.973Z,22.80
2019-06-27T03:52:21.121Z,25.63
2019-06-27T03:55:25.759Z,20.40
2019-06-27T03:58:29.761Z,22.00
2019-06-27T04:01:33.970Z,21.37
2019-06-27T04:04:38.265Z,20.77
2019-06-27T04:07:42.879Z,22.73
2019-06-27T04:10:47.153Z,18.40
2019-06-27T04:13:51.930Z,23.33
2019-06-27T04:16:56.673Z,19.03
2019-06-27T04:20:00.938Z,16.23
2019-06-27T04:23:05.507Z,21.30
2019-06-27T04:26:09.745Z,21.40
2019-06-27T04:29:32.111Z,19.27
2019-06-27T04:32:19.538Z,20.43
2019-06-27T04:35:23.851Z,17.77
2019-06-27T04:38:28.128Z,14.97
2019-06-27T04:41:32.845Z,19.47
2019-06-27T04:44:37.534Z,19.40
2019-06-27T04:47:42.458Z,14.17
2019-06-27T04:50:46.734Z,17.87
2019-06-27T04:53:51.195Z,15.60
2019-06-27T04:56:55.494Z,16.50
2019-06-27T04:59:59.720Z,20.00
2019-06-27T05:03:03.771Z,18.73
2019-06-27T05:06:07.921Z,17.33
2019-06-27T05:09:12.092Z,14.10
2019-06-27T05:12:16.385Z,17.03
2019-06-27T05:15:20.383Z,16.53
2019-06-27T05:18:24.267Z,13.17
2019-06-27T05:21:28.764Z,12.43
2019-06-27T05:24:33.301Z,13.03
2019-06-27T05:27:37.157Z,12.97
2019-06-27T05:30:41.035Z,16.47
2019-06-27T05:33:45.646Z,18.63
2019-06-27T05:36:50.172Z,11.77
2019-06-27T05:39:55.314Z,13.07
2019-06-27T05:42:59.681Z,13.50
2019-06-27T05:46:04.373Z,13.73
2019-06-27T05:49:09.140Z,14.07
2019-06-27T05:52:13.793Z,13.97
2019-06-27T05:55:19.675Z,12.97
2019-06-27T05:58:24.377Z,10.80
2019-06-27T06:01:28.647Z,20.60
2019-06-27T06:04:32.768Z,14.60
2019-06-27T06:07:36.708Z,11.83
2019-06-27T06:10:41.311Z,13.13
2019-06-27T06:13:45.428Z,13.73
2019-06-27T06:16:49.453Z,15.07
2019-06-27T06:19:54.071Z,10.77
2019-06-27T06:22:58.620Z,13.20
2019-06-27T06:26:02.821Z,11.47
2019-06-27T06:29:07.212Z,12.03
2019-06-27T06:32:11.439Z,11.37
2019-06-27T06:35:15.566Z,13.17
2019-06-27T06:38:19.429Z,11.67
2019-06-27T06:41:23.280Z,13.57
2019-06-27T06:44:27.612Z,11.10
2019-06-27T06:47:31.483Z,10.43
2019-06-27T06:50:36.013Z,13.90
2019-06-27T06:53:40.202Z,10.87
2019-06-27T06:56:44.414Z,12.27
2019-06-27T06:59:48.749Z,15.57
2019-06-27T07:02:53.173Z,13.50
2019-06-27T07:05:57.081Z,12.70
2019-06-27T07:09:01.291Z,12.77
2019-06-27T07:12:05.362Z,11.30
2019-06-27T07:15:09.837Z,9.97
2019-06-27T07:18:13.804Z,11.83
2019-06-27T07:21:17.667Z,12.57
2019-06-27T07:24:21.946Z,12.60
2019-06-27T07:27:25.833Z,14.27
2019-06-27T07:30:30.422Z,14.00
2019-06-27T07:33:34.744Z,8.23
2019-06-27T07:36:39.027Z,13.47
2019-06-27T07:39:43.182Z,10.83
2019-06-27T07:42:47.587Z,9.57
2019-06-27T07:45:52.193Z,10.17
2019-06-27T07:48:56.438Z,12.93
2019-06-27T07:52:00.610Z,12.23
2019-06-27T07:55:05.139Z,10.47
2019-06-27T07:58:09.389Z,15.17
2019-06-27T08:01:13.415Z,14.07
2019-06-27T08:04:17.269Z,12.93
2019-06-27T08:07:21.447Z,10.03
2019-06-27T08:10:25.802Z,9.03
2019-06-27T08:13:30.089Z,13.30
2019-06-27T08:16:34.321Z,8.50
2019-06-27T08:19:38.257Z,9.43
2019-06-27T08:22:42.956Z,9.10
2019-06-27T08:25:46.894Z,10.93
2019-06-27T08:28:50.863Z,11.23
2019-06-27T08:31:54.846Z,13.50
2019-06-27T08:34:58.708Z,13.03
2019-06-27T08:38:02.698Z,12.07
2019-06-27T08:41:06.689Z,9.03
2019-06-27T08:44:11.205Z,7.93
2019-06-27T08:47:15.492Z,9.00
2019-06-27T08:50:19.928Z,8.07
2019-06-27T08:53:24.066Z,9.03
2019-06-27T08:56:28.060Z,8.47
2019-06-27T08:59:32.004Z,8.57
2019-06-27T09:02:36.193Z,7.17
2019-06-27T09:05:40.057Z,7.10
2019-06-27T09:08:44.326Z,7.30
2019-06-27T09:11:48.596Z,8.27
2019-06-27T09:14:52.663Z,8.80
2019-06-27T09:17:56.724Z,6.50
2019-06-27T09:21:00.838Z,6.87
2019-06-27T09:24:04.882Z,10.37
2019-06-27T09:27:09.470Z,10.03
2019-06-27T09:30:13.947Z,8.83
2019-06-27T09:33:18.666Z,8.07
2019-06-27T09:36:23.201Z,5.47
2019-06-27T09:39:27.432Z,9.07
2019-06-27T09:42:31.372Z,5.50
2019-06-27T09:45:35.299Z,6.83
2019-06-27T09:48:39.416Z,6.77
2019-06-27T09:51:43.534Z,7.23
2019-06-27T09:54:47.857Z,6.00
2019-06-27T09:57:52.235Z,6.30
2019-06-27T10:00:56.245Z,6.00
2019-06-27T10:04:01.289Z,6.20
2019-06-27T10:07:05.608Z,8.03
2019-06-27T10:10:10.227Z,4.93
2019-06-27T10:13:14.670Z,5.73
2019-06-27T10:16:18.889Z,5.40
2019-06-27T10:19:23.004Z,8.57
2019-06-27T10:22:27.533Z,5.13
2019-06-27T10:25:31.687Z,3.33
2019-06-27T10:28:35.951Z,5.53
2019-06-27T10:31:40.092Z,4.33
2019-06-27T10:34:44.038Z,3.87
2019-06-27T10:37:47.900Z,4.70
2019-06-27T10:40:51.910Z,4.47
2019-06-27T10:43:58.580Z,6.00
2019-06-27T10:47:02.530Z,5.03
2019-06-27T10:50:06.868Z,5.20
2019-06-27T10:53:11.065Z,4.37
2019-06-27T10:56:15.697Z,6.37
2019-06-27T10:59:19.923Z,3.20
2019-06-27T11:02:23.955Z,4.30
2019-06-27T11:05:28.255Z,3.87
2019-06-27T11:08:32.196Z,4.50
2019-06-27T11:11:36.406Z,3.13
2019-06-27T11:14:40.280Z,3.60
2019-06-27T11:17:44.553Z,4.57
2019-06-27T11:20:48.611Z,3.57
2019-06-27T11:23:53.384Z,2.93
2019-06-27T11:26:57.449Z,4.67
2019-06-27T11:30:01.483Z,4.77
2019-06-27T11:33:05.726Z,2.43
2019-06-27T11:36:09.900Z,2.80
2019-06-27T11:39:14.473Z,3.10
2019-06-27T11:42:19.617Z,2.47
2019-06-27T11:45:23.840Z,4.27
2019-06-27T11:48:28.149Z,5.00
2019-06-27T11:51:32.584Z,4.80
2019-06-27T11:54:37.635Z,5.27
2019-06-27T11:57:42.072Z,2.73
2019-06-27T12:00:46.158Z,3.83
2019-06-27T12:03:50.612Z,2.30
2019-06-27T12:06:54.689Z,1.70
2019-06-27T12:09:58.821Z,2.50
2019-06-27T12:13:02.851Z,2.90
2019-06-27T12:16:07.588Z,2.80
2019-06-27T12:19:11.777Z,2.33
2019-06-27T12:22:15.725Z,3.33
2019-06-27T12:25:19.748Z,2.40
2019-06-27T12:28:24.077Z,1.50
2019-06-27T12:31:28.413Z,1.60
2019-06-27T12:34:32.293Z,1.40
2019-06-27T12:37:39.669Z,2.77
2019-06-27T12:40:43.078Z,4.97
2019-06-27T12:43:47.088Z,2.47
2019-06-27T12:46:51.204Z,3.90
2019-06-27T12:50:02.068Z,3.53
2019-06-27T12:53:01.442Z,2.23
2019-06-27T12:56:05.385Z,3.43
2019-06-27T12:59:10.161Z,5.30
2019-06-27T13:02:14.092Z,4.70
2019-06-27T13:05:20.636Z,2.23
2019-06-27T13:08:24.027Z,2.00
2019-06-27T13:11:29.029Z,4.93
2019-06-27T13:14:34.000Z,2.47
2019-06-27T13:17:38.196Z,5.20
2019-06-27T13:20:56.770Z,4.73
2019-06-27T13:23:48.999Z,2.07
2019-06-27T13:26:53.109Z,4.60
2019-06-27T13:29:57.377Z,2.20
2019-06-27T13:33:04.354Z,3.50
2019-06-27T13:36:08.755Z,5.50
2019-06-27T13:39:12.669Z,3.10
2019-06-27T13:42:17.360Z,4.60
2019-06-27T13:45:21.671Z,3.50
2019-06-27T13:48:25.861Z,2.23
2019-06-27T13:51:30.081Z,2.77
2019-06-27T13:54:34.024Z,6.53
2019-06-27T13:57:38.418Z,4.33
2019-06-27T14:00:44.404Z,2.07
2019-06-27T14:03:49.857Z,4.07
2019-06-27T14:06:54.457Z,4.07
2019-06-27T14:09:58.887Z,1.43
2019-06-27T14:13:03.065Z,3.77
2019-06-27T14:16:07.085Z,4.37
2019-06-27T14:19:11.160Z,1.60
2019-06-27T14:22:29.185Z,1.97
2019-06-27T14:25:21.531Z,2.37
2019-06-27T14:28:25.738Z,1.93
2019-06-27T14:31:29.862Z,2.07
2019-06-27T14:34:33.708Z,3.70
2019-06-27T14:37:37.888Z,1.60
2019-06-27T14:40:43.320Z,4.87
2019-06-27T14:43:47.763Z,2.80
2019-06-27T14:46:52.401Z,1.70
2019-06-27T14:49:56.664Z,2.13
2019-06-27T14:53:00.847Z,1.67
2019-06-27T14:56:04.757Z,3.10
2019-06-27T14:59:08.688Z,2.27
2019-06-27T15:02:12.625Z,4.57
2019-06-27T15:05:31.364Z,3.67
2019-06-27T15:08:22.612Z,2.47
2019-06-27T15:11:27.242Z,1.83
2019-06-27T15:14:31.809Z,2.00
2019-06-27T15:17:35.999Z,3.43
2019-06-27T15:20:40.252Z,5.90
2019-06-27T15:23:44.476Z,2.63
2019-06-27T15:26:49.061Z,1.20
2019-06-27T15:29:53.002Z,4.47
2019-06-27T15:32:57.237Z,3.77
2019-06-27T15:36:01.109Z,2.63
2019-06-27T15:39:05.950Z,2.30
2019-06-27T15:42:14.436Z,2.50
2019-06-27T15:45:22.016Z,3.53
2019-06-27T15:48:26.584Z,2.80
2019-06-27T15:51:32.556Z,7.73
2019-06-27T15:54:37.563Z,3.60
2019-06-27T15:57:42.445Z,3.03
2019-06-27T16:00:46.949Z,2.73
2019-06-27T16:03:51.444Z,1.70
2019-06-27T16:06:55.586Z,3.37
2019-06-27T16:09:59.861Z,2.47
2019-06-27T16:13:04.176Z,2.23
2019-06-27T16:16:08.454Z,2.30
2019-06-27T16:19:13.055Z,1.90
2019-06-27T16:22:17.723Z,3.73
2019-06-27T16:25:21.759Z,8.63
2019-06-27T16:28:27.178Z,3.37
2019-06-27T16:31:31.969Z,1.70
2019-06-27T16:34:36.240Z,2.50
2019-06-27T16:37:40.547Z,3.80
2019-06-27T16:40:46.276Z,5.43
2019-06-27T16:43:50.640Z,7.07
2019-06-27T16:46:54.650Z,5.90
2019-06-27T16:49:59.247Z,2.07
2019-06-27T16:53:03.861Z,1.90
2019-06-27T16:56:08.379Z,3.53
2019-06-27T16:59:12.383Z,1.70
2019-06-27T17:02:16.424Z,5.30
2019-06-27T17:05:20.642Z,1.83
2019-06-27T17:08:25.574Z,1.90
2019-06-27T17:11:30.103Z,2.73
2019-06-27T17:14:34.046Z,0.80
2019-06-27T17:17:38.066Z,2.50
2019-06-27T17:20:42.539Z,4.23
2019-06-27T17:23:47.089Z,2.00
2019-06-27T17:26:51.384Z,4.00
2019-06-27T17:29:55.935Z,1.23
2019-06-27T17:33:00.220Z,2.30
2019-06-27T17:36:04.430Z,2.40
2019-06-27T17:39:08.360Z,0.70
2019-06-27T17:42:12.613Z,1.70
2019-06-27T17:45:18.383Z,1.43
2019-06-27T17:48:23.025Z,1.60
2019-06-27T17:51:27.120Z,1.87
2019-06-27T17:54:31.494Z,5.80
2019-06-27T17:57:35.331Z,1.27
2019-06-27T18:00:39.363Z,3.53
2019-06-27T18:03:43.865Z,3.90
2019-06-27T18:06:48.143Z,2.10
2019-06-27T18:09:52.260Z,2.80
2019-06-27T18:12:56.456Z,4.63
2019-06-27T18:16:00.419Z,16.97
2019-06-27T18:19:04.361Z,3.30
2019-06-27T18:22:08.362Z,2.53
2019-06-27T18:25:12.380Z,3.53
2019-06-27T18:28:16.517Z,5.63
2019-06-27T18:31:20.755Z,2.90
2019-06-27T18:34:24.616Z,1.77
2019-06-27T18:37:30.349Z,4.60
2019-06-27T18:40:34.412Z,1.80
2019-06-27T18:43:38.932Z,1.60
2019-06-27T18:46:43.388Z,3.40
2019-06-27T18:49:47.510Z,5.40
2019-06-27T18:52:51.725Z,6.83
2019-06-27T18:55:55.796Z,6.23
2019-06-27T18:58:59.862Z,7.47
2019-06-27T19:02:04.152Z,6.13
2019-06-27T19:05:08.459Z,6.40
2019-06-27T19:08:12.650Z,6.53
2019-06-27T19:11:16.661Z,3.87
2019-06-27T19:14:20.709Z,8.83
2019-06-27T19:17:26.818Z,5.37
2019-06-27T19:20:39.437Z,7.10
2019-06-27T19:23:58.392Z,4.43
2019-06-27T19:27:02.435Z,5.83
2019-06-27T19:30:07.266Z,3.40
2019-06-27T19:33:11.946Z,4.67
2019-06-27T19:36:15.903Z,4.33
2019-06-27T19:39:19.825Z,6.43
2019-06-27T19:42:24.097Z,7.53
2019-06-27T19:45:28.410Z,7.50
2019-06-27T19:48:33.196Z,2.23
2019-06-27T19:51:37.124Z,6.93
2019-06-27T19:54:41.290Z,5.53
2019-06-27T19:57:45.156Z,3.17
2019-06-27T20:00:49.876Z,4.77
2019-06-27T20:03:54.136Z,4.90
2019-06-27T20:06:58.718Z,2.20
2019-06-27T20:10:02.967Z,2.73
2019-06-27T20:13:07.263Z,7.33
2019-06-27T20:16:11.463Z,3.10
2019-06-27T20:19:15.474Z,4.17
2019-06-27T20:22:19.573Z,8.10
2019-06-27T20:25:23.836Z,4.80
2019-06-27T20:28:27.788Z,6.53
2019-06-27T20:31:31.884Z,4.00
2019-06-27T20:34:39.322Z,3.70
2019-06-27T20:37:43.062Z,3.17
2019-06-27T20:40:47.450Z,5.70
2019-06-27T20:43:51.379Z,3.27
2019-06-27T20:46:55.600Z,4.33
2019-06-27T20:49:59.541Z,3.23
2019-06-27T20:53:03.824Z,3.77
2019-06-27T20:56:08.191Z,5.40
2019-06-27T20:59:12.839Z,3.90
2019-06-27T21:02:17.605Z,5.90
2019-06-27T21:05:22.183Z,8.40
2019-06-27T21:08:26.478Z,4.23
2019-06-27T21:11:31.043Z,3.20
2019-06-27T21:14:35.733Z,4.57
2019-06-27T21:17:39.744Z,2.80
2019-06-27T21:20:44.310Z,3.53
2019-06-27T21:23:48.681Z,3.63
2019-06-27T21:26:52.674Z,4.57
2019-06-27T21:29:57.273Z,4.90
2019-06-27T21:33:01.489Z,5.00
2019-06-27T21:36:05.735Z,2.90
2019-06-27T21:39:09.822Z,5.17
2019-06-27T21:42:14.048Z,3.30
2019-06-27T21:45:18.117Z,2.67
2019-06-27T21:48:22.345Z,5.40
2019-06-27T21:51:26.582Z,4.23
2019-06-27T21:54:31.146Z,8.93
2019-06-27T21:57:35.792Z,5.30
2019-06-27T22:00:40.716Z,6.00
2019-06-27T22:03:44.725Z,3.83
2019-06-27T22:06:48.737Z,9.60
2019-06-27T22:09:53.012Z,5.60
2019-06-27T22:12:57.032Z,3.53
2019-06-27T22:16:01.063Z,4.40
2019-06-27T22:19:05.788Z,4.63
2019-06-27T22:22:09.801Z,4.77
2019-06-27T22:25:14.713Z,4.27
2019-06-27T22:28:19.020Z,8.73
2019-06-27T22:31:23.148Z,2.50
2019-06-27T22:34:27.086Z,6.53
2019-06-27T22:37:30.462Z,4.33
2019-06-27T22:40:52.989Z,2.50
2019-06-27T22:44:14.885Z,2.90
2019-06-27T22:47:36.630Z,5.70
2019-06-27T22:51:01.656Z,4.57
2019-06-27T22:54:06.523Z,4.03
2019-06-27T22:57:10.823Z,3.07
2019-06-27T23:00:14.922Z,3.67
2019-06-27T23:03:19.290Z,3.77
2019-06-27T23:06:23.255Z,2.53
2019-06-27T23:09:27.522Z,4.23
2019-06-27T23:12:31.642Z,10.77
2019-06-27T23:15:36.065Z,4.53
2019-06-27T23:18:40.700Z,4.00
2019-06-27T23:21:44.919Z,5.03
2019-06-27T23:24:49.034Z,4.80
2019-06-27T23:27:53.053Z,2.70
2019-06-27T23:30:57.464Z,5.60
2019-06-27T23:34:01.922Z,5.77
2019-06-27T23:37:06.187Z,5.73
2019-06-27T23:40:14.582Z,4.60
2019-06-27T23:43:17.435Z,3.77
2019-06-27T23:46:41.946Z,5.93
2019-06-27T23:49:46.213Z,4.37
2019-06-27T23:52:50.090Z,4.50
2019-06-27T23:55:54.022Z,5.53
2019-06-27T23:58:58.600Z,3.87
